sensor_id;sensor_type;location;lat;lon;timestamp;P1;durP1;ratioP1;P2;durP2;ratioP2
43086;SDS011;28708;52.224;6.924;2023-02-13T00:01:14;43.60;;;22.93;;
43086;SDS011;28708;52.224;6.924;2023-02-13T00:03:41;42.03;;;22.80;;
43086;SDS011;28708;52.224;6.924;2023-02-13T00:06:06;38.97;;;22.93;;
43086;SDS011;28708;52.224;6.924;2023-02-13T00:08:32;39.57;;;22.07;;
43086;SDS011;28708;52.224;6.924;2023-02-13T00:10:58;36.73;;;21.03;;
43086;SDS011;28708;52.224;6.924;2023-02-13T00:13:23;38.13;;;21.37;;
43086;SDS011;28708;52.224;6.924;2023-02-13T00:15:56;40.67;;;22.67;;
43086;SDS011;28708;52.224;6.924;2023-02-13T00:18:23;44.37;;;21.83;;
43086;SDS011;28708;52.224;6.924;2023-02-13T00:20:59;45.47;;;22.73;;
43086;SDS011;28708;52.224;6.924;2023-02-13T00:23:28;42.67;;;21.73;;
43086;SDS011;28708;52.224;6.924;2023-02-13T00:25:55;45.87;;;24.43;;
43086;SDS011;28708;52.224;6.924;2023-02-13T00:28:21;45.73;;;23.30;;
43086;SDS011;28708;52.224;6.924;2023-02-13T00:30:47;45.07;;;23.20;;
43086;SDS011;28708;52.224;6.924;2023-02-13T00:33:13;47.67;;;24.30;;
43086;SDS011;28708;52.224;6.924;2023-02-13T00:35:39;42.87;;;22.53;;
43086;SDS011;28708;52.224;6.924;2023-02-13T00:38:05;44.97;;;23.90;;
43086;SDS011;28708;52.224;6.924;2023-02-13T00:40:30;46.87;;;23.80;;
43086;SDS011;28708;52.224;6.924;2023-02-13T00:42:57;39.87;;;23.37;;
43086;SDS011;28708;52.224;6.924;2023-02-13T00:45:23;42.40;;;23.20;;
43086;SDS011;28708;52.224;6.924;2023-02-13T00:47:49;46.43;;;23.40;;
43086;SDS011;28708;52.224;6.924;2023-02-13T00:50:14;45.13;;;24.60;;
43086;SDS011;28708;52.224;6.924;2023-02-13T00:52:40;42.37;;;23.23;;
43086;SDS011;28708;52.224;6.924;2023-02-13T00:55:06;45.00;;;23.63;;
43086;SDS011;28708;52.224;6.924;2023-02-13T00:57:31;41.57;;;22.90;;
43086;SDS011;28708;52.224;6.924;2023-02-13T00:59:57;41.73;;;23.20;;
43086;SDS011;28708;52.224;6.924;2023-02-13T01:02:23;40.20;;;20.73;;
43086;SDS011;28708;52.224;6.924;2023-02-13T01:04:49;42.40;;;21.77;;
43086;SDS011;28708;52.224;6.924;2023-02-13T01:07:16;39.37;;;21.67;;
43086;SDS011;28708;52.224;6.924;2023-02-13T01:09:42;43.07;;;21.87;;
43086;SDS011;28708;52.224;6.924;2023-02-13T01:12:08;44.27;;;23.30;;
43086;SDS011;28708;52.224;6.924;2023-02-13T01:14:34;43.33;;;22.27;;
43086;SDS011;28708;52.224;6.924;2023-02-13T01:17:00;40.67;;;21.13;;
43086;SDS011;28708;52.224;6.924;2023-02-13T01:19:25;43.10;;;22.30;;
43086;SDS011;28708;52.224;6.924;2023-02-13T01:21:51;39.20;;;20.23;;
43086;SDS011;28708;52.224;6.924;2023-02-13T01:24:17;39.63;;;21.40;;
43086;SDS011;28708;52.224;6.924;2023-02-13T01:26:43;39.13;;;21.53;;
43086;SDS011;28708;52.224;6.924;2023-02-13T01:29:10;42.00;;;22.87;;
43086;SDS011;28708;52.224;6.924;2023-02-13T01:31:38;42.40;;;21.73;;
43086;SDS011;28708;52.224;6.924;2023-02-13T01:34:03;41.30;;;21.50;;
43086;SDS011;28708;52.224;6.924;2023-02-13T01:36:30;42.27;;;21.37;;
43086;SDS011;28708;52.224;6.924;2023-02-13T01:38:56;41.37;;;21.73;;
43086;SDS011;28708;52.224;6.924;2023-02-13T01:41:23;40.80;;;21.00;;
43086;SDS011;28708;52.224;6.924;2023-02-13T01:43:51;46.77;;;23.23;;
43086;SDS011;28708;52.224;6.924;2023-02-13T01:46:32;38.83;;;21.30;;
43086;SDS011;28708;52.224;6.924;2023-02-13T01:49:04;41.63;;;21.57;;
43086;SDS011;28708;52.224;6.924;2023-02-13T01:51:40;41.07;;;21.43;;
43086;SDS011;28708;52.224;6.924;2023-02-13T01:54:11;39.50;;;21.07;;
43086;SDS011;28708;52.224;6.924;2023-02-13T01:56:40;41.10;;;21.37;;
43086;SDS011;28708;52.224;6.924;2023-02-13T01:59:09;41.50;;;21.63;;
43086;SDS011;28708;52.224;6.924;2023-02-13T02:01:48;42.13;;;22.60;;
43086;SDS011;28708;52.224;6.924;2023-02-13T02:04:21;42.70;;;22.73;;
43086;SDS011;28708;52.224;6.924;2023-02-13T02:07:01;42.13;;;21.80;;
43086;SDS011;28708;52.224;6.924;2023-02-13T02:09:33;41.30;;;22.67;;
43086;SDS011;28708;52.224;6.924;2023-02-13T02:12:03;38.70;;;20.43;;
43086;SDS011;28708;52.224;6.924;2023-02-13T02:14:52;42.55;;;21.60;;
43086;SDS011;28708;52.224;6.924;2023-02-13T02:17:22;38.23;;;20.30;;
43086;SDS011;28708;52.224;6.924;2023-02-13T02:33:40;42.17;;;22.67;;
43086;SDS011;28708;52.224;6.924;2023-02-13T02:36:38;41.47;;;21.27;;
43086;SDS011;28708;52.224;6.924;2023-02-13T02:47:13;48.20;;;23.70;;
43086;SDS011;28708;52.224;6.924;2023-02-13T02:56:03;42.83;;;21.30;;
43086;SDS011;28708;52.224;6.924;2023-02-13T02:58:51;44.57;;;22.67;;
43086;SDS011;28708;52.224;6.924;2023-02-13T03:01:39;40.50;;;22.50;;
43086;SDS011;28708;52.224;6.924;2023-02-13T03:04:32;41.40;;;22.10;;
43086;SDS011;28708;52.224;6.924;2023-02-13T03:07:22;39.80;;;22.10;;
43086;SDS011;28708;52.224;6.924;2023-02-13T03:09:51;40.97;;;21.40;;
43086;SDS011;28708;52.224;6.924;2023-02-13T03:12:43;43.93;;;22.97;;
43086;SDS011;28708;52.224;6.924;2023-02-13T03:15:32;41.17;;;23.00;;
43086;SDS011;28708;52.224;6.924;2023-02-13T03:18:22;48.63;;;22.50;;
43086;SDS011;28708;52.224;6.924;2023-02-13T03:21:10;44.57;;;21.87;;
43086;SDS011;28708;52.224;6.924;2023-02-13T03:29:29;41.77;;;22.13;;
43086;SDS011;28708;52.224;6.924;2023-02-13T03:32:36;45.63;;;23.97;;
43086;SDS011;28708;52.224;6.924;2023-02-13T03:38:11;45.05;;;23.08;;
43086;SDS011;28708;52.224;6.924;2023-02-13T03:41:04;48.60;;;25.10;;
43086;SDS011;28708;52.224;6.924;2023-02-13T03:46:25;42.23;;;23.53;;
43086;SDS011;28708;52.224;6.924;2023-02-13T03:48:53;51.30;;;23.73;;
43086;SDS011;28708;52.224;6.924;2023-02-13T03:51:43;46.03;;;24.03;;
43086;SDS011;28708;52.224;6.924;2023-02-13T03:54:18;45.13;;;23.33;;
43086;SDS011;28708;52.224;6.924;2023-02-13T03:57:07;46.83;;;24.17;;
43086;SDS011;28708;52.224;6.924;2023-02-13T03:59:53;45.60;;;23.67;;
43086;SDS011;28708;52.224;6.924;2023-02-13T04:02:21;46.73;;;23.13;;
43086;SDS011;28708;52.224;6.924;2023-02-13T04:05:02;43.93;;;23.40;;
43086;SDS011;28708;52.224;6.924;2023-02-13T04:07:35;44.37;;;23.50;;
43086;SDS011;28708;52.224;6.924;2023-02-13T04:15:13;40.83;;;22.20;;
43086;SDS011;28708;52.224;6.924;2023-02-13T04:17:48;44.97;;;23.33;;
43086;SDS011;28708;52.224;6.924;2023-02-13T04:20:18;47.57;;;24.03;;
43086;SDS011;28708;52.224;6.924;2023-02-13T04:22:45;50.90;;;25.57;;
43086;SDS011;28708;52.224;6.924;2023-02-13T04:25:11;48.43;;;24.20;;
43086;SDS011;28708;52.224;6.924;2023-02-13T04:27:39;53.30;;;25.37;;
43086;SDS011;28708;52.224;6.924;2023-02-13T04:30:05;49.87;;;25.60;;
43086;SDS011;28708;52.224;6.924;2023-02-13T04:32:33;47.00;;;23.77;;
43086;SDS011;28708;52.224;6.924;2023-02-13T04:34:59;47.87;;;23.87;;
43086;SDS011;28708;52.224;6.924;2023-02-13T04:37:24;52.90;;;26.17;;
43086;SDS011;28708;52.224;6.924;2023-02-13T04:39:50;51.77;;;27.30;;
43086;SDS011;28708;52.224;6.924;2023-02-13T04:42:16;45.93;;;23.90;;
43086;SDS011;28708;52.224;6.924;2023-02-13T04:44:41;50.23;;;24.97;;
43086;SDS011;28708;52.224;6.924;2023-02-13T04:47:07;52.10;;;25.60;;
43086;SDS011;28708;52.224;6.924;2023-02-13T04:49:32;49.47;;;25.83;;
43086;SDS011;28708;52.224;6.924;2023-02-13T04:51:58;50.10;;;26.27;;
43086;SDS011;28708;52.224;6.924;2023-02-13T04:54:24;48.03;;;24.70;;
43086;SDS011;28708;52.224;6.924;2023-02-13T04:56:49;47.23;;;25.40;;
43086;SDS011;28708;52.224;6.924;2023-02-13T04:59:15;44.83;;;24.20;;
43086;SDS011;28708;52.224;6.924;2023-02-13T05:01:40;50.30;;;26.03;;
43086;SDS011;28708;52.224;6.924;2023-02-13T05:04:06;49.30;;;24.50;;
43086;SDS011;28708;52.224;6.924;2023-02-13T05:06:32;48.20;;;24.73;;
43086;SDS011;28708;52.224;6.924;2023-02-13T05:08:57;48.57;;;24.20;;
43086;SDS011;28708;52.224;6.924;2023-02-13T05:11:23;46.03;;;24.27;;
43086;SDS011;28708;52.224;6.924;2023-02-13T05:13:48;46.80;;;24.03;;
43086;SDS011;28708;52.224;6.924;2023-02-13T05:16:14;47.57;;;24.57;;
43086;SDS011;28708;52.224;6.924;2023-02-13T05:18:40;48.63;;;25.87;;
43086;SDS011;28708;52.224;6.924;2023-02-13T05:21:05;45.33;;;24.60;;
43086;SDS011;28708;52.224;6.924;2023-02-13T05:23:49;47.63;;;24.63;;
43086;SDS011;28708;52.224;6.924;2023-02-13T05:26:15;47.03;;;25.17;;
43086;SDS011;28708;52.224;6.924;2023-02-13T05:28:40;46.57;;;24.20;;
43086;SDS011;28708;52.224;6.924;2023-02-13T05:31:25;51.03;;;25.50;;
43086;SDS011;28708;52.224;6.924;2023-02-13T05:33:50;45.37;;;23.57;;
43086;SDS011;28708;52.224;6.924;2023-02-13T05:36:16;48.40;;;25.37;;
43086;SDS011;28708;52.224;6.924;2023-02-13T05:38:42;50.90;;;25.77;;
43086;SDS011;28708;52.224;6.924;2023-02-13T05:41:07;48.53;;;24.27;;
43086;SDS011;28708;52.224;6.924;2023-02-13T05:43:33;50.47;;;25.87;;
43086;SDS011;28708;52.224;6.924;2023-02-13T05:46:05;48.03;;;25.40;;
43086;SDS011;28708;52.224;6.924;2023-02-13T05:48:32;50.87;;;24.23;;
43086;SDS011;28708;52.224;6.924;2023-02-13T05:50:58;44.13;;;24.10;;
43086;SDS011;28708;52.224;6.924;2023-02-13T05:53:24;45.40;;;24.10;;
43086;SDS011;28708;52.224;6.924;2023-02-13T05:55:50;47.37;;;24.00;;
43086;SDS011;28708;52.224;6.924;2023-02-13T05:58:16;47.00;;;24.77;;
43086;SDS011;28708;52.224;6.924;2023-02-13T06:00:43;51.47;;;25.00;;
43086;SDS011;28708;52.224;6.924;2023-02-13T06:03:09;48.97;;;24.70;;
43086;SDS011;28708;52.224;6.924;2023-02-13T06:05:34;51.70;;;26.53;;
43086;SDS011;28708;52.224;6.924;2023-02-13T06:08:00;49.10;;;24.50;;
43086;SDS011;28708;52.224;6.924;2023-02-13T06:10:26;47.97;;;25.07;;
43086;SDS011;28708;52.224;6.924;2023-02-13T06:12:51;47.30;;;24.93;;
43086;SDS011;28708;52.224;6.924;2023-02-13T06:15:17;53.17;;;25.30;;
43086;SDS011;28708;52.224;6.924;2023-02-13T06:17:42;48.27;;;24.50;;
43086;SDS011;28708;52.224;6.924;2023-02-13T06:20:08;43.37;;;24.03;;
43086;SDS011;28708;52.224;6.924;2023-02-13T06:22:34;49.83;;;26.40;;
43086;SDS011;28708;52.224;6.924;2023-02-13T06:25:00;48.00;;;25.67;;
43086;SDS011;28708;52.224;6.924;2023-02-13T06:27:26;53.90;;;27.57;;
43086;SDS011;28708;52.224;6.924;2023-02-13T06:29:51;47.00;;;24.87;;
43086;SDS011;28708;52.224;6.924;2023-02-13T06:32:17;53.50;;;26.80;;
43086;SDS011;28708;52.224;6.924;2023-02-13T06:34:43;49.93;;;26.67;;
43086;SDS011;28708;52.224;6.924;2023-02-13T06:37:08;49.13;;;26.80;;
43086;SDS011;28708;52.224;6.924;2023-02-13T06:39:34;48.90;;;26.07;;
43086;SDS011;28708;52.224;6.924;2023-02-13T06:41:59;51.33;;;26.97;;
43086;SDS011;28708;52.224;6.924;2023-02-13T06:44:25;50.37;;;26.87;;
43086;SDS011;28708;52.224;6.924;2023-02-13T06:46:51;48.30;;;25.83;;
43086;SDS011;28708;52.224;6.924;2023-02-13T06:49:16;51.30;;;26.90;;
43086;SDS011;28708;52.224;6.924;2023-02-13T06:51:42;53.47;;;28.80;;
43086;SDS011;28708;52.224;6.924;2023-02-13T06:54:07;49.67;;;27.27;;
43086;SDS011;28708;52.224;6.924;2023-02-13T06:56:33;53.77;;;28.80;;
43086;SDS011;28708;52.224;6.924;2023-02-13T06:58:58;53.17;;;27.47;;
43086;SDS011;28708;52.224;6.924;2023-02-13T07:01:24;49.60;;;25.97;;
43086;SDS011;28708;52.224;6.924;2023-02-13T07:03:50;52.63;;;28.20;;
43086;SDS011;28708;52.224;6.924;2023-02-13T07:06:16;51.67;;;26.80;;
43086;SDS011;28708;52.224;6.924;2023-02-13T07:08:45;49.33;;;27.50;;
43086;SDS011;28708;52.224;6.924;2023-02-13T07:11:18;55.47;;;28.67;;
43086;SDS011;28708;52.224;6.924;2023-02-13T07:13:44;50.90;;;28.07;;
43086;SDS011;28708;52.224;6.924;2023-02-13T07:16:10;52.17;;;26.30;;
43086;SDS011;28708;52.224;6.924;2023-02-13T07:18:35;52.63;;;28.20;;
43086;SDS011;28708;52.224;6.924;2023-02-13T07:21:02;53.10;;;27.87;;
43086;SDS011;28708;52.224;6.924;2023-02-13T07:23:28;52.83;;;28.53;;
43086;SDS011;28708;52.224;6.924;2023-02-13T07:25:53;50.90;;;27.20;;
43086;SDS011;28708;52.224;6.924;2023-02-13T07:28:19;51.67;;;29.03;;
43086;SDS011;28708;52.224;6.924;2023-02-13T07:30:45;56.73;;;28.70;;
43086;SDS011;28708;52.224;6.924;2023-02-13T07:33:10;52.10;;;26.17;;
43086;SDS011;28708;52.224;6.924;2023-02-13T07:35:36;48.80;;;25.37;;
43086;SDS011;28708;52.224;6.924;2023-02-13T07:38:03;51.47;;;26.13;;
43086;SDS011;28708;52.224;6.924;2023-02-13T07:40:28;49.27;;;26.40;;
43086;SDS011;28708;52.224;6.924;2023-02-13T07:42:54;49.83;;;26.60;;
43086;SDS011;28708;52.224;6.924;2023-02-13T07:45:20;46.10;;;25.03;;
43086;SDS011;28708;52.224;6.924;2023-02-13T07:47:46;45.90;;;25.33;;
43086;SDS011;28708;52.224;6.924;2023-02-13T07:50:11;46.03;;;25.80;;
43086;SDS011;28708;52.224;6.924;2023-02-13T07:52:37;47.83;;;25.53;;
43086;SDS011;28708;52.224;6.924;2023-02-13T07:55:03;42.67;;;23.97;;
43086;SDS011;28708;52.224;6.924;2023-02-13T07:57:30;42.50;;;24.77;;
43086;SDS011;28708;52.224;6.924;2023-02-13T07:59:56;43.13;;;24.50;;
43086;SDS011;28708;52.224;6.924;2023-02-13T08:02:22;47.13;;;24.67;;
43086;SDS011;28708;52.224;6.924;2023-02-13T08:04:48;46.10;;;25.37;;
43086;SDS011;28708;52.224;6.924;2023-02-13T08:07:14;45.73;;;25.10;;
43086;SDS011;28708;52.224;6.924;2023-02-13T08:09:42;43.57;;;25.23;;
43086;SDS011;28708;52.224;6.924;2023-02-13T08:12:28;51.90;;;26.63;;
43086;SDS011;28708;52.224;6.924;2023-02-13T08:14:54;47.20;;;26.23;;
43086;SDS011;28708;52.224;6.924;2023-02-13T08:17:19;44.10;;;27.10;;
43086;SDS011;28708;52.224;6.924;2023-02-13T08:19:45;46.77;;;25.27;;
43086;SDS011;28708;52.224;6.924;2023-02-13T08:22:11;47.60;;;25.97;;
43086;SDS011;28708;52.224;6.924;2023-02-13T08:24:36;45.60;;;27.33;;
43086;SDS011;28708;52.224;6.924;2023-02-13T08:27:02;45.97;;;26.90;;
43086;SDS011;28708;52.224;6.924;2023-02-13T08:29:28;45.90;;;27.37;;
43086;SDS011;28708;52.224;6.924;2023-02-13T08:31:53;44.47;;;26.60;;
43086;SDS011;28708;52.224;6.924;2023-02-13T08:34:19;44.43;;;26.70;;
43086;SDS011;28708;52.224;6.924;2023-02-13T08:36:45;44.53;;;25.83;;
43086;SDS011;28708;52.224;6.924;2023-02-13T08:39:10;44.13;;;29.03;;
43086;SDS011;28708;52.224;6.924;2023-02-13T08:41:36;44.83;;;28.73;;
43086;SDS011;28708;52.224;6.924;2023-02-13T08:44:02;47.93;;;27.97;;
43086;SDS011;28708;52.224;6.924;2023-02-13T08:46:28;44.37;;;27.93;;
43086;SDS011;28708;52.224;6.924;2023-02-13T08:48:53;40.87;;;28.00;;
43086;SDS011;28708;52.224;6.924;2023-02-13T08:51:19;41.30;;;26.63;;
43086;SDS011;28708;52.224;6.924;2023-02-13T08:53:45;44.67;;;27.40;;
43086;SDS011;28708;52.224;6.924;2023-02-13T08:56:11;44.23;;;27.37;;
43086;SDS011;28708;52.224;6.924;2023-02-13T08:58:36;39.77;;;26.47;;
43086;SDS011;28708;52.224;6.924;2023-02-13T09:01:06;46.13;;;25.67;;
43086;SDS011;28708;52.224;6.924;2023-02-13T09:03:32;41.85;;;25.75;;
43086;SDS011;28708;52.224;6.924;2023-02-13T09:05:59;41.60;;;27.43;;
43086;SDS011;28708;52.224;6.924;2023-02-13T09:08:26;42.07;;;26.67;;
43086;SDS011;28708;52.224;6.924;2023-02-13T09:10:55;47.43;;;28.63;;
43086;SDS011;28708;52.224;6.924;2023-02-13T09:13:26;41.87;;;26.73;;
43086;SDS011;28708;52.224;6.924;2023-02-13T09:15:53;43.07;;;28.13;;
43086;SDS011;28708;52.224;6.924;2023-02-13T09:18:18;45.67;;;28.20;;
43086;SDS011;28708;52.224;6.924;2023-02-13T09:20:44;45.37;;;28.63;;
43086;SDS011;28708;52.224;6.924;2023-02-13T09:23:09;43.03;;;28.83;;
43086;SDS011;28708;52.224;6.924;2023-02-13T09:25:35;45.27;;;27.43;;
43086;SDS011;28708;52.224;6.924;2023-02-13T09:28:01;40.60;;;27.37;;
43086;SDS011;28708;52.224;6.924;2023-02-13T09:30:26;41.13;;;26.73;;
43086;SDS011;28708;52.224;6.924;2023-02-13T09:32:52;41.03;;;26.03;;
43086;SDS011;28708;52.224;6.924;2023-02-13T09:35:19;37.40;;;27.10;;
43086;SDS011;28708;52.224;6.924;2023-02-13T09:37:45;38.43;;;26.50;;
43086;SDS011;28708;52.224;6.924;2023-02-13T09:46:13;46.30;;;30.33;;
43086;SDS011;28708;52.224;6.924;2023-02-13T09:49:13;43.70;;;28.63;;
43086;SDS011;28708;52.224;6.924;2023-02-13T09:51:43;43.13;;;28.17;;
43086;SDS011;28708;52.224;6.924;2023-02-13T09:54:14;44.07;;;29.63;;
43086;SDS011;28708;52.224;6.924;2023-02-13T09:56:51;40.80;;;29.37;;
43086;SDS011;28708;52.224;6.924;2023-02-13T09:59:32;39.93;;;28.23;;
43086;SDS011;28708;52.224;6.924;2023-02-13T10:05:09;42.23;;;29.50;;
43086;SDS011;28708;52.224;6.924;2023-02-13T10:07:47;38.60;;;27.13;;
43086;SDS011;28708;52.224;6.924;2023-02-13T10:10:23;41.30;;;29.27;;
43086;SDS011;28708;52.224;6.924;2023-02-13T10:13:06;40.30;;;27.70;;
43086;SDS011;28708;52.224;6.924;2023-02-13T10:18:37;104.25;;;47.10;;
43086;SDS011;28708;52.224;6.924;2023-02-13T10:21:29;47.20;;;30.47;;
43086;SDS011;28708;52.224;6.924;2023-02-13T10:24:13;46.77;;;32.60;;
43086;SDS011;28708;52.224;6.924;2023-02-13T10:26:45;37.43;;;27.40;;
43086;SDS011;28708;52.224;6.924;2023-02-13T10:32:15;40.47;;;28.03;;
43086;SDS011;28708;52.224;6.924;2023-02-13T10:34:44;39.93;;;29.37;;
43086;SDS011;28708;52.224;6.924;2023-02-13T10:37:12;39.70;;;29.73;;
43086;SDS011;28708;52.224;6.924;2023-02-13T10:39:41;48.25;;;34.05;;
43086;SDS011;28708;52.224;6.924;2023-02-13T10:42:22;41.00;;;29.93;;
43086;SDS011;28708;52.224;6.924;2023-02-13T10:50:59;40.63;;;27.93;;
43086;SDS011;28708;52.224;6.924;2023-02-13T11:04:43;39.20;;;29.27;;
43086;SDS011;28708;52.224;6.924;2023-02-13T11:07:14;39.53;;;29.93;;
43086;SDS011;28708;52.224;6.924;2023-02-13T11:09:42;41.83;;;31.70;;
43086;SDS011;28708;52.224;6.924;2023-02-13T11:12:33;39.67;;;28.83;;
43086;SDS011;28708;52.224;6.924;2023-02-13T11:15:03;34.90;;;25.83;;
43086;SDS011;28708;52.224;6.924;2023-02-13T11:17:33;33.77;;;24.40;;
43086;SDS011;28708;52.224;6.924;2023-02-13T11:20:03;34.22;;;23.65;;
43086;SDS011;28708;52.224;6.924;2023-02-13T11:22:47;34.33;;;23.00;;
43086;SDS011;28708;52.224;6.924;2023-02-13T11:25:17;29.43;;;21.90;;
43086;SDS011;28708;52.224;6.924;2023-02-13T11:27:46;30.70;;;21.30;;
43086;SDS011;28708;52.224;6.924;2023-02-13T11:33:01;30.57;;;21.83;;
43086;SDS011;28708;52.224;6.924;2023-02-13T11:35:32;29.80;;;21.47;;
43086;SDS011;28708;52.224;6.924;2023-02-13T11:40:43;30.20;;;21.77;;
43086;SDS011;28708;52.224;6.924;2023-02-13T11:43:23;25.83;;;19.27;;
43086;SDS011;28708;52.224;6.924;2023-02-13T11:46:18;25.37;;;17.97;;
43086;SDS011;28708;52.224;6.924;2023-02-13T11:49:04;25.27;;;18.63;;
43086;SDS011;28708;52.224;6.924;2023-02-13T11:51:41;29.40;;;19.33;;
43086;SDS011;28708;52.224;6.924;2023-02-13T11:56:53;26.93;;;18.83;;
43086;SDS011;28708;52.224;6.924;2023-02-13T11:59:21;26.13;;;17.60;;
43086;SDS011;28708;52.224;6.924;2023-02-13T12:04:49;29.88;;;19.13;;
43086;SDS011;28708;52.224;6.924;2023-02-13T12:07:18;23.97;;;17.53;;
43086;SDS011;28708;52.224;6.924;2023-02-13T12:09:44;25.17;;;17.90;;
43086;SDS011;28708;52.224;6.924;2023-02-13T12:12:18;27.50;;;18.57;;
43086;SDS011;28708;52.224;6.924;2023-02-13T12:15:00;28.97;;;18.80;;
43086;SDS011;28708;52.224;6.924;2023-02-13T12:17:28;25.50;;;18.10;;
43086;SDS011;28708;52.224;6.924;2023-02-13T12:19:55;24.60;;;17.17;;
43086;SDS011;28708;52.224;6.924;2023-02-13T12:35:46;50.63;;;26.40;;
43086;SDS011;28708;52.224;6.924;2023-02-13T12:38:37;31.45;;;19.98;;
43086;SDS011;28708;52.224;6.924;2023-02-13T12:41:57;55.20;;;28.17;;
43086;SDS011;28708;52.224;6.924;2023-02-13T12:44:36;35.27;;;20.73;;
43086;SDS011;28708;52.224;6.924;2023-02-13T12:47:20;35.13;;;21.97;;
43086;SDS011;28708;52.224;6.924;2023-02-13T12:52:43;32.53;;;19.73;;
43086;SDS011;28708;52.224;6.924;2023-02-13T12:55:30;28.60;;;19.00;;
43086;SDS011;28708;52.224;6.924;2023-02-13T12:58:24;29.33;;;18.60;;
43086;SDS011;28708;52.224;6.924;2023-02-13T13:01:23;27.90;;;18.73;;
43086;SDS011;28708;52.224;6.924;2023-02-13T13:06:47;24.07;;;17.37;;
43086;SDS011;28708;52.224;6.924;2023-02-13T13:18:03;23.77;;;17.23;;
43086;SDS011;28708;52.224;6.924;2023-02-13T13:20:47;22.07;;;16.97;;
43086;SDS011;28708;52.224;6.924;2023-02-13T13:23:26;23.50;;;17.70;;
43086;SDS011;28708;52.224;6.924;2023-02-13T13:26:54;27.87;;;18.73;;
43086;SDS011;28708;52.224;6.924;2023-02-13T13:28:49;24.83;;;18.63;;
43086;SDS011;28708;52.224;6.924;2023-02-13T13:31:19;25.38;;;18.98;;
43086;SDS011;28708;52.224;6.924;2023-02-13T13:33:49;23.40;;;18.10;;
43086;SDS011;28708;52.224;6.924;2023-02-13T13:42:15;25.17;;;18.67;;
43086;SDS011;28708;52.224;6.924;2023-02-13T13:44:48;29.83;;;20.25;;
43086;SDS011;28708;52.224;6.924;2023-02-13T13:49:51;30.03;;;20.40;;
43086;SDS011;28708;52.224;6.924;2023-02-13T13:52:26;28.00;;;21.80;;
43086;SDS011;28708;52.224;6.924;2023-02-13T13:54:58;29.40;;;20.77;;
43086;SDS011;28708;52.224;6.924;2023-02-13T13:58:15;30.23;;;21.10;;
43086;SDS011;28708;52.224;6.924;2023-02-13T14:00:22;29.20;;;20.73;;
43086;SDS011;28708;52.224;6.924;2023-02-13T14:03:11;34.03;;;22.23;;
43086;SDS011;28708;52.224;6.924;2023-02-13T14:06:00;32.50;;;22.73;;
43086;SDS011;28708;52.224;6.924;2023-02-13T14:13:52;31.33;;;22.30;;
43086;SDS011;28708;52.224;6.924;2023-02-13T14:25:06;35.03;;;23.93;;
43086;SDS011;28708;52.224;6.924;2023-02-13T14:27:50;32.37;;;22.73;;
43086;SDS011;28708;52.224;6.924;2023-02-13T14:33:19;37.30;;;24.47;;
43086;SDS011;28708;52.224;6.924;2023-02-13T14:36:05;49.70;;;28.87;;
43086;SDS011;28708;52.224;6.924;2023-02-13T14:38:33;49.50;;;29.73;;
43086;SDS011;28708;52.224;6.924;2023-02-13T14:40:59;31.33;;;23.57;;
43086;SDS011;28708;52.224;6.924;2023-02-13T14:49:05;35.83;;;24.37;;
43086;SDS011;28708;52.224;6.924;2023-02-13T14:51:39;42.67;;;28.43;;
43086;SDS011;28708;52.224;6.924;2023-02-13T14:56:58;37.83;;;26.97;;
43086;SDS011;28708;52.224;6.924;2023-02-13T14:59:30;29.23;;;22.10;;
43086;SDS011;28708;52.224;6.924;2023-02-13T15:02:04;29.10;;;21.90;;
43086;SDS011;28708;52.224;6.924;2023-02-13T15:04:47;26.97;;;20.27;;
43086;SDS011;28708;52.224;6.924;2023-02-13T15:07:23;26.60;;;20.10;;
43086;SDS011;28708;52.224;6.924;2023-02-13T15:10:04;24.83;;;18.37;;
43086;SDS011;28708;52.224;6.924;2023-02-13T15:12:57;24.97;;;19.90;;
43086;SDS011;28708;52.224;6.924;2023-02-13T15:15:33;25.93;;;18.03;;
43086;SDS011;28708;52.224;6.924;2023-02-13T15:18:07;25.13;;;18.70;;
43086;SDS011;28708;52.224;6.924;2023-02-13T15:20:39;23.40;;;19.10;;
43086;SDS011;28708;52.224;6.924;2023-02-13T15:23:07;27.37;;;19.87;;
43086;SDS011;28708;52.224;6.924;2023-02-13T15:25:46;24.38;;;18.52;;
43086;SDS011;28708;52.224;6.924;2023-02-13T15:28:18;27.43;;;20.67;;
43086;SDS011;28708;52.224;6.924;2023-02-13T15:30:56;30.80;;;20.73;;
43086;SDS011;28708;52.224;6.924;2023-02-13T15:33:25;30.20;;;21.17;;
43086;SDS011;28708;52.224;6.924;2023-02-13T15:35:58;27.67;;;20.87;;
43086;SDS011;28708;52.224;6.924;2023-02-13T15:38:30;27.50;;;20.63;;
43086;SDS011;28708;52.224;6.924;2023-02-13T15:41:08;28.23;;;20.60;;
43086;SDS011;28708;52.224;6.924;2023-02-13T15:43:37;28.93;;;21.27;;
43086;SDS011;28708;52.224;6.924;2023-02-13T15:46:26;28.90;;;21.70;;
43086;SDS011;28708;52.224;6.924;2023-02-13T15:48:53;26.90;;;20.30;;
43086;SDS011;28708;52.224;6.924;2023-02-13T15:51:26;29.43;;;21.43;;
43086;SDS011;28708;52.224;6.924;2023-02-13T15:54:02;26.33;;;20.47;;
43086;SDS011;28708;52.224;6.924;2023-02-13T15:56:29;31.77;;;21.30;;
43086;SDS011;28708;52.224;6.924;2023-02-13T15:58:57;34.97;;;25.20;;
43086;SDS011;28708;52.224;6.924;2023-02-13T16:01:25;30.90;;;23.07;;
43086;SDS011;28708;52.224;6.924;2023-02-13T16:04:11;28.33;;;21.23;;
43086;SDS011;28708;52.224;6.924;2023-02-13T16:06:39;26.90;;;19.87;;
43086;SDS011;28708;52.224;6.924;2023-02-13T16:09:20;29.40;;;21.50;;
43086;SDS011;28708;52.224;6.924;2023-02-13T16:11:51;29.20;;;19.50;;
43086;SDS011;28708;52.224;6.924;2023-02-13T16:14:24;28.27;;;20.60;;
43086;SDS011;28708;52.224;6.924;2023-02-13T16:19:20;26.63;;;18.83;;
43086;SDS011;28708;52.224;6.924;2023-02-13T16:21:52;27.97;;;20.13;;
43086;SDS011;28708;52.224;6.924;2023-02-13T16:24:20;29.20;;;20.90;;
43086;SDS011;28708;52.224;6.924;2023-02-13T16:26:47;30.00;;;20.13;;
43086;SDS011;28708;52.224;6.924;2023-02-13T16:29:18;31.80;;;22.40;;
43086;SDS011;28708;52.224;6.924;2023-02-13T16:31:46;28.03;;;20.17;;
43086;SDS011;28708;52.224;6.924;2023-02-13T16:34:14;28.57;;;19.50;;
43086;SDS011;28708;52.224;6.924;2023-02-13T16:36:45;30.73;;;20.33;;
43086;SDS011;28708;52.224;6.924;2023-02-13T16:39:31;31.57;;;19.97;;
43086;SDS011;28708;52.224;6.924;2023-02-13T16:41:58;27.30;;;20.17;;
43086;SDS011;28708;52.224;6.924;2023-02-13T16:44:28;36.93;;;24.23;;
43086;SDS011;28708;52.224;6.924;2023-02-13T16:46:56;28.40;;;20.07;;
43086;SDS011;28708;52.224;6.924;2023-02-13T16:49:26;28.10;;;19.77;;
43086;SDS011;28708;52.224;6.924;2023-02-13T16:54:48;28.83;;;19.40;;
43086;SDS011;28708;52.224;6.924;2023-02-13T16:57:37;28.42;;;20.88;;
43086;SDS011;28708;52.224;6.924;2023-02-13T17:02:44;31.83;;;21.17;;
43086;SDS011;28708;52.224;6.924;2023-02-13T17:05:13;32.17;;;21.57;;
43086;SDS011;28708;52.224;6.924;2023-02-13T17:10:25;32.77;;;22.33;;
43086;SDS011;28708;52.224;6.924;2023-02-13T17:12:56;33.90;;;23.37;;
43086;SDS011;28708;52.224;6.924;2023-02-13T17:15:25;34.73;;;22.37;;
43086;SDS011;28708;52.224;6.924;2023-02-13T17:17:52;44.07;;;23.17;;
43086;SDS011;28708;52.224;6.924;2023-02-13T17:20:19;41.13;;;27.40;;
43086;SDS011;28708;52.224;6.924;2023-02-13T17:22:54;34.33;;;23.60;;
43086;SDS011;28708;52.224;6.924;2023-02-13T17:25:22;34.57;;;23.70;;